sensor_id;sensor_type;location;lat;lon;timestamp;temperature;humidity
72646;DHT22;60687;53.876;10.674;2022-08-19T00:00:03;20.50;77.50
72646;DHT22;60687;53.876;10.674;2022-08-19T00:10:23;20.50;77.80
72646;DHT22;60687;53.876;10.674;2022-08-19T00:20:42;20.40;78.50
72646;DHT22;60687;53.876;10.674;2022-08-19T00:30:51;20.30;79.70
72646;DHT22;60687;53.876;10.674;2022-08-19T00:41:08;20.20;79.70
72646;DHT22;60687;53.876;10.674;2022-08-19T00:51:29;20.20;80.80
72646;DHT22;60687;53.876;10.674;2022-08-19T01:01:35;20.10;79.80
72646;DHT22;60687;53.876;10.674;2022-08-19T01:11:41;20.10;80.50
72646;DHT22;60687;53.876;10.674;2022-08-19T01:21:55;20.10;80.60
72646;DHT22;60687;53.876;10.674;2022-08-19T01:32:09;20.00;81.80
72646;DHT22;60687;53.876;10.674;2022-08-19T01:42:22;19.90;82.10
72646;DHT22;60687;53.876;10.674;2022-08-19T01:52:35;19.90;82.40
72646;DHT22;60687;53.876;10.674;2022-08-19T02:02:40;19.90;81.80
72646;DHT22;60687;53.876;10.674;2022-08-19T02:12:45;19.90;81.30
72646;DHT22;60687;53.876;10.674;2022-08-19T02:22:56;19.90;81.70
72646;DHT22;60687;53.876;10.674;2022-08-19T02:33:00;19.90;81.90
72646;DHT22;60687;53.876;10.674;2022-08-19T02:43:07;19.80;82.00
72646;DHT22;60687;53.876;10.674;2022-08-19T02:53:14;19.90;81.70
72646;DHT22;60687;53.876;10.674;2022-08-19T03:03:21;19.90;81.40
72646;DHT22;60687;53.876;10.674;2022-08-19T03:13:32;19.90;82.20
72646;DHT22;60687;53.876;10.674;2022-08-19T03:23:37;19.90;81.80
72646;DHT22;60687;53.876;10.674;2022-08-19T03:33:51;19.90;81.30
72646;DHT22;60687;53.876;10.674;2022-08-19T03:43:57;19.80;81.80
72646;DHT22;60687;53.876;10.674;2022-08-19T03:54:10;19.90;81.10
72646;DHT22;60687;53.876;10.674;2022-08-19T04:04:20;19.90;81.60
72646;DHT22;60687;53.876;10.674;2022-08-19T04:14:38;20.00;81.20
72646;DHT22;60687;53.876;10.674;2022-08-19T04:25:15;19.90;81.30
72646;DHT22;60687;53.876;10.674;2022-08-19T04:35:44;19.90;81.30
72646;DHT22;60687;53.876;10.674;2022-08-19T04:45:59;19.90;81.30
72646;DHT22;60687;53.876;10.674;2022-08-19T04:56:16;19.80;81.50
72646;DHT22;60687;53.876;10.674;2022-08-19T05:06:36;19.80;82.10
72646;DHT22;60687;53.876;10.674;2022-08-19T05:16:51;19.80;81.60
72646;DHT22;60687;53.876;10.674;2022-08-19T05:26:54;19.80;82.00
72646;DHT22;60687;53.876;10.674;2022-08-19T05:37:13;19.80;81.90
72646;DHT22;60687;53.876;10.674;2022-08-19T05:47:19;19.80;81.90
72646;DHT22;60687;53.876;10.674;2022-08-19T05:57:24;19.80;83.00
72646;DHT22;60687;53.876;10.674;2022-08-19T06:07:28;19.70;82.80
72646;DHT22;60687;53.876;10.674;2022-08-19T06:17:36;19.80;82.70
72646;DHT22;60687;53.876;10.674;2022-08-19T06:27:56;19.80;83.10
72646;DHT22;60687;53.876;10.674;2022-08-19T06:38:08;19.70;83.90
72646;DHT22;60687;53.876;10.674;2022-08-19T06:48:13;19.70;82.90
72646;DHT22;60687;53.876;10.674;2022-08-19T06:58:18;19.80;82.90
72646;DHT22;60687;53.876;10.674;2022-08-19T07:08:22;19.70;84.10
72646;DHT22;60687;53.876;10.674;2022-08-19T07:18:32;19.70;84.20
72646;DHT22;60687;53.876;10.674;2022-08-19T07:28:47;19.70;83.80
72646;DHT22;60687;53.876;10.674;2022-08-19T07:38:56;19.80;84.20
72646;DHT22;60687;53.876;10.674;2022-08-19T07:49:01;19.80;84.00
72646;DHT22;60687;53.876;10.674;2022-08-19T07:59:05;19.90;84.90
72646;DHT22;60687;53.876;10.674;2022-08-19T08:09:12;19.80;85.10
72646;DHT22;60687;53.876;10.674;2022-08-19T08:19:27;19.90;84.70
72646;DHT22;60687;53.876;10.674;2022-08-19T08:29:33;19.90;84.50
72646;DHT22;60687;53.876;10.674;2022-08-19T08:39:40;19.90;84.90
72646;DHT22;60687;53.876;10.674;2022-08-19T08:49:47;20.00;85.20
72646;DHT22;60687;53.876;10.674;2022-08-19T08:59:54;20.00;85.10
72646;DHT22;60687;53.876;10.674;2022-08-19T09:10:07;20.00;85.00
72646;DHT22;60687;53.876;10.674;2022-08-19T09:20:21;20.10;85.90
72646;DHT22;60687;53.876;10.674;2022-08-19T09:30:26;20.10;85.40
72646;DHT22;60687;53.876;10.674;2022-08-19T09:40:35;20.20;85.90
72646;DHT22;60687;53.876;10.674;2022-08-19T09:50:40;20.30;85.80
72646;DHT22;60687;53.876;10.674;2022-08-19T10:00:50;20.30;85.70
72646;DHT22;60687;53.876;10.674;2022-08-19T10:10:55;20.40;85.80
72646;DHT22;60687;53.876;10.674;2022-08-19T10:21:15;20.50;86.20
72646;DHT22;60687;53.876;10.674;2022-08-19T10:31:25;20.70;86.20
72646;DHT22;60687;53.876;10.674;2022-08-19T10:41:43;20.70;86.10
72646;DHT22;60687;53.876;10.674;2022-08-19T10:51:46;20.70;85.90
72646;DHT22;60687;53.876;10.674;2022-08-19T11:02:15;20.70;85.50
72646;DHT22;60687;53.876;10.674;2022-08-19T11:12:21;20.60;85.20
72646;DHT22;60687;53.876;10.674;2022-08-19T11:22:27;20.60;85.40
72646;DHT22;60687;53.876;10.674;2022-08-19T11:32:32;20.60;85.80
72646;DHT22;60687;53.876;10.674;2022-08-19T11:52:57;20.60;86.40
72646;DHT22;60687;53.876;10.674;2022-08-19T12:03:09;20.60;86.80
72646;DHT22;60687;53.876;10.674;2022-08-19T12:13:16;20.70;86.50
72646;DHT22;60687;53.876;10.674;2022-08-19T12:23:22;20.70;87.10
72646;DHT22;60687;53.876;10.674;2022-08-19T12:33:27;20.80;87.20
72646;DHT22;60687;53.876;10.674;2022-08-19T12:43:36;21.00;87.00
72646;DHT22;60687;53.876;10.674;2022-08-19T12:53:39;21.00;87.30
72646;DHT22;60687;53.876;10.674;2022-08-19T13:03:44;21.00;87.20
72646;DHT22;60687;53.876;10.674;2022-08-19T13:13:48;21.10;86.60
72646;DHT22;60687;53.876;10.674;2022-08-19T13:23:53;21.20;86.40
72646;DHT22;60687;53.876;10.674;2022-08-19T13:33:58;21.20;85.90
72646;DHT22;60687;53.876;10.674;2022-08-19T13:44:02;21.30;86.00
72646;DHT22;60687;53.876;10.674;2022-08-19T13:54:05;21.40;86.60
72646;DHT22;60687;53.876;10.674;2022-08-19T14:04:09;21.50;84.70
72646;DHT22;60687;53.876;10.674;2022-08-19T14:14:14;21.60;84.10
72646;DHT22;60687;53.876;10.674;2022-08-19T14:24:18;21.70;83.30
72646;DHT22;60687;53.876;10.674;2022-08-19T14:34:20;21.80;83.60
72646;DHT22;60687;53.876;10.674;2022-08-19T14:44:24;21.80;82.90
72646;DHT22;60687;53.876;10.674;2022-08-19T14:54:26;21.90;82.70
72646;DHT22;60687;53.876;10.674;2022-08-19T15:04:29;22.00;81.90
72646;DHT22;60687;53.876;10.674;2022-08-19T15:14:31;22.10;81.90
72646;DHT22;60687;53.876;10.674;2022-08-19T15:24:38;22.00;81.80
72646;DHT22;60687;53.876;10.674;2022-08-19T15:34:40;22.00;81.50
72646;DHT22;60687;53.876;10.674;2022-08-19T15:44:43;22.00;81.50
72646;DHT22;60687;53.876;10.674;2022-08-19T15:54:46;21.90;81.80
72646;DHT22;60687;53.876;10.674;2022-08-19T16:04:50;21.80;81.90
72646;DHT22;60687;53.876;10.674;2022-08-19T16:15:11;21.80;81.70
72646;DHT22;60687;53.876;10.674;2022-08-19T16:25:16;21.70;81.40
72646;DHT22;60687;53.876;10.674;2022-08-19T16:35:18;21.70;81.60
72646;DHT22;60687;53.876;10.674;2022-08-19T16:45:22;21.60;81.20
72646;DHT22;60687;53.876;10.674;2022-08-19T16:55:27;21.60;81.30
72646;DHT22;60687;53.876;10.674;2022-08-19T17:05:32;21.50;81.60
72646;DHT22;60687;53.876;10.674;2022-08-19T17:15:35;21.50;81.10
72646;DHT22;60687;53.876;10.674;2022-08-19T17:25:39;21.60;80.90
72646;DHT22;60687;53.876;10.674;2022-08-19T17:35:47;21.50;80.80
72646;DHT22;60687;53.876;10.674;2022-08-19T17:45:53;21.50;81.10
72646;DHT22;60687;53.876;10.674;2022-08-19T17:55:57;21.50;82.00
72646;DHT22;60687;53.876;10.674;2022-08-19T18:06:01;21.50;81.60
72646;DHT22;60687;53.876;10.674;2022-08-19T18:16:05;21.40;81.90
72646;DHT22;60687;53.876;10.674;2022-08-19T18:26:12;21.30;81.70
72646;DHT22;60687;53.876;10.674;2022-08-19T18:36:14;21.20;82.10
72646;DHT22;60687;53.876;10.674;2022-08-19T18:46:18;21.10;82.20
72646;DHT22;60687;53.876;10.674;2022-08-19T18:56:38;21.00;82.30
72646;DHT22;60687;53.876;10.674;2022-08-19T19:06:45;20.90;82.50
72646;DHT22;60687;53.876;10.674;2022-08-19T19:16:48;20.80;82.40
72646;DHT22;60687;53.876;10.674;2022-08-19T19:26:52;20.70;83.00
72646;DHT22;60687;53.876;10.674;2022-08-19T19:36:54;20.60;83.40
72646;DHT22;60687;53.876;10.674;2022-08-19T19:46:58;20.50;83.70
72646;DHT22;60687;53.876;10.674;2022-08-19T19:57:01;20.40;84.00
72646;DHT22;60687;53.876;10.674;2022-08-19T20:07:05;20.40;84.00
72646;DHT22;60687;53.876;10.674;2022-08-19T20:17:07;20.30;84.30
72646;DHT22;60687;53.876;10.674;2022-08-19T20:27:10;20.20;83.80
72646;DHT22;60687;53.876;10.674;2022-08-19T20:37:13;20.20;84.00
72646;DHT22;60687;53.876;10.674;2022-08-19T20:47:17;20.10;84.30
72646;DHT22;60687;53.876;10.674;2022-08-19T20:57:19;20.00;84.30
72646;DHT22;60687;53.876;10.674;2022-08-19T21:07:23;19.90;83.90
72646;DHT22;60687;53.876;10.674;2022-08-19T21:17:26;19.80;83.80
72646;DHT22;60687;53.876;10.674;2022-08-19T21:27:30;19.80;83.30
72646;DHT22;60687;53.876;10.674;2022-08-19T21:37:32;19.70;83.80
72646;DHT22;60687;53.876;10.674;2022-08-19T21:47:36;19.60;83.80
72646;DHT22;60687;53.876;10.674;2022-08-19T21:57:39;19.60;83.80
72646;DHT22;60687;53.876;10.674;2022-08-19T22:07:43;19.50;83.80
72646;DHT22;60687;53.876;10.674;2022-08-19T22:17:46;19.40;84.30
72646;DHT22;60687;53.876;10.674;2022-08-19T22:27:50;19.40;84.20
72646;DHT22;60687;53.876;10.674;2022-08-19T22:37:52;19.30;84.20
72646;DHT22;60687;53.876;10.674;2022-08-19T22:47:57;19.30;83.90
72646;DHT22;60687;53.876;10.674;2022-08-19T22:57:59;19.20;84.10
72646;DHT22;60687;53.876;10.674;2022-08-19T23:08:03;19.20;83.50
72646;DHT22;60687;53.876;10.674;2022-08-19T23:18:05;19.10;83.50
72646;DHT22;60687;53.876;10.674;2022-08-19T23:28:09;19.00;83.40
72646;DHT22;60687;53.876;10.674;2022-08-19T23:38:30;18.90;84.10
72646;DHT22;60687;53.876;10.674;2022-08-19T23:48:35;18.90;83.50
72646;DHT22;60687;53.876;10.674;2022-08-19T23:58:39;18.80;83.70
